createdAt,value
2023-10-06T00:00:52.106Z,9.65
2023-10-06T00:03:22.127Z,10.25
2023-10-06T00:05:50.328Z,9.52
2023-10-06T00:08:19.364Z,10.00
2023-10-06T00:10:48.265Z,10.35
2023-10-06T00:13:20.536Z,8.68
2023-10-06T00:15:51.199Z,8.05
2023-10-06T00:18:20.612Z,8.73
2023-10-06T00:20:50.174Z,8.63
2023-10-06T00:23:23.288Z,8.95
2023-10-06T00:25:56.524Z,8.95
2023-10-06T00:28:28.301Z,8.35
2023-10-06T00:31:07.651Z,9.00
2023-10-06T00:33:39.826Z,9.30
2023-10-06T00:36:15.425Z,9.70
2023-10-06T00:38:46.365Z,9.00
2023-10-06T00:41:17.565Z,9.48
2023-10-06T00:46:15.078Z,9.48
2023-10-06T00:48:43.895Z,10.55
2023-10-06T00:51:13.767Z,9.07
2023-10-06T00:53:42.752Z,10.93
2023-10-06T00:56:17.318Z,9.65
2023-10-06T00:58:45.806Z,9.75
2023-10-06T01:01:14.636Z,9.35
2023-10-06T01:03:45.270Z,8.32
2023-10-06T01:06:16.724Z,10.32
2023-10-06T01:08:50.597Z,9.57
2023-10-06T01:11:19.051Z,9.02
2023-10-06T01:13:59.489Z,9.85
2023-10-06T01:16:31.775Z,9.18
2023-10-06T01:19:16.320Z,10.43
2023-10-06T01:21:54.569Z,8.88
2023-10-06T01:24:26.329Z,9.93
2023-10-06T01:27:00.536Z,9.20
2023-10-06T01:29:32.282Z,10.07
2023-10-06T01:32:05.377Z,9.90
2023-10-06T01:34:39.956Z,11.07
2023-10-06T01:37:11.372Z,10.30
2023-10-06T01:39:39.437Z,11.73
2023-10-06T01:42:18.509Z,9.85
2023-10-06T01:44:46.530Z,9.40
2023-10-06T01:47:15.177Z,10.25
2023-10-06T01:49:45.080Z,10.35
2023-10-06T01:52:15.220Z,9.65
2023-10-06T01:54:46.315Z,9.45
2023-10-06T01:59:45.451Z,9.43
2023-10-06T02:02:15.057Z,9.27
2023-10-06T02:04:50.525Z,9.77
2023-10-06T02:07:19.902Z,9.52
2023-10-06T02:09:47.719Z,9.07
2023-10-06T02:12:17.203Z,9.30
2023-10-06T02:14:45.795Z,8.60
2023-10-06T02:17:14.136Z,9.32
2023-10-06T02:19:43.538Z,10.07
2023-10-06T02:22:12.524Z,9.32
2023-10-06T02:24:40.916Z,8.93
2023-10-06T02:27:11.247Z,8.80
2023-10-06T02:29:39.138Z,8.88
2023-10-06T02:32:09.883Z,9.30
2023-10-06T02:34:40.177Z,9.77
2023-10-06T02:37:09.698Z,9.52
2023-10-06T02:39:39.924Z,8.85
2023-10-06T02:42:15.276Z,9.67
2023-10-06T02:44:43.732Z,9.88
2023-10-06T02:47:13.281Z,9.63
2023-10-06T02:49:56.601Z,10.52
2023-10-06T02:52:24.555Z,10.38
2023-10-06T02:55:04.894Z,10.20
2023-10-06T02:57:37.382Z,10.10
2023-10-06T03:00:24.563Z,10.48
2023-10-06T03:03:13.587Z,10.00
2023-10-06T03:05:43.606Z,9.93
2023-10-06T03:08:11.491Z,9.50
2023-10-06T03:10:45.637Z,8.75
2023-10-06T03:13:17.672Z,8.98
2023-10-06T03:15:49.190Z,9.02
2023-10-06T03:18:19.261Z,8.95
2023-10-06T03:20:47.690Z,9.25
2023-10-06T03:23:32.018Z,9.25
2023-10-06T03:26:00.223Z,8.63
2023-10-06T03:28:38.284Z,8.82
2023-10-06T03:31:30.562Z,8.93
2023-10-06T03:33:58.951Z,8.65
2023-10-06T03:36:39.511Z,8.63
2023-10-06T03:39:12.734Z,9.43
2023-10-06T03:41:45.466Z,9.18
2023-10-06T03:44:13.775Z,7.90
2023-10-06T03:46:42.361Z,8.60
2023-10-06T03:49:10.465Z,8.73
2023-10-06T03:51:42.275Z,8.15
2023-10-06T03:54:10.886Z,7.50
2023-10-06T03:56:38.778Z,8.20
2023-10-06T03:59:14.525Z,8.57
2023-10-06T04:01:45.805Z,8.13
2023-10-06T04:06:44.343Z,7.32
2023-10-06T04:09:13.047Z,8.23
2023-10-06T04:11:44.128Z,8.35
2023-10-06T04:14:14.977Z,8.65
2023-10-06T04:16:47.437Z,8.60
2023-10-06T04:19:18.874Z,7.30
2023-10-06T04:21:48.910Z,8.23
2023-10-06T04:24:16.780Z,8.70
2023-10-06T04:26:44.631Z,8.65
2023-10-06T04:29:14.951Z,9.18
2023-10-06T04:31:43.044Z,10.75
2023-10-06T04:34:10.894Z,10.60
2023-10-06T04:36:39.339Z,10.45
2023-10-06T04:39:12.695Z,11.05
2023-10-06T04:41:42.539Z,11.15
2023-10-06T04:44:11.505Z,12.18
2023-10-06T04:46:41.060Z,11.38
2023-10-06T04:49:09.353Z,12.13
2023-10-06T04:51:37.321Z,12.68
2023-10-06T04:54:09.671Z,11.77
2023-10-06T04:56:37.841Z,12.43
2023-10-06T04:59:08.072Z,12.13
2023-10-06T05:01:36.361Z,12.10
2023-10-06T05:04:10.654Z,12.73
2023-10-06T05:06:38.709Z,11.88
2023-10-06T05:09:08.013Z,13.05
2023-10-06T05:11:38.464Z,12.45
2023-10-06T05:14:10.135Z,13.13
2023-10-06T05:16:39.448Z,12.57
2023-10-06T05:19:09.248Z,12.68
2023-10-06T05:21:37.913Z,13.38
2023-10-06T05:24:05.952Z,12.88
2023-10-06T05:26:34.134Z,12.85
2023-10-06T05:29:02.402Z,12.95
2023-10-06T05:31:30.346Z,13.68
2023-10-06T05:33:58.091Z,12.88
2023-10-06T05:36:27.304Z,12.82
2023-10-06T05:38:56.521Z,12.30
2023-10-06T05:41:25.837Z,13.60
2023-10-06T05:43:54.281Z,14.05
2023-10-06T05:46:22.359Z,12.63
2023-10-06T05:48:52.723Z,13.20
2023-10-06T05:51:22.795Z,13.90
2023-10-06T05:53:53.312Z,13.20
2023-10-06T05:56:21.593Z,14.00
2023-10-06T05:58:49.822Z,13.52
2023-10-06T06:01:22.002Z,13.85
2023-10-06T06:03:51.602Z,13.43
2023-10-06T06:06:24.574Z,12.52
2023-10-06T06:08:53.391Z,13.00
2023-10-06T06:11:21.775Z,13.15
2023-10-06T06:13:59.102Z,14.50
2023-10-06T06:16:35.711Z,14.57
2023-10-06T06:19:07.037Z,14.05
2023-10-06T06:21:36.163Z,13.60
2023-10-06T06:24:04.522Z,13.85
2023-10-06T06:26:33.089Z,13.70
2023-10-06T06:29:04.330Z,14.10
2023-10-06T06:31:35.365Z,14.68
2023-10-06T06:34:06.115Z,13.20
2023-10-06T06:36:34.122Z,11.52
2023-10-06T06:39:03.034Z,13.73
2023-10-06T06:41:31.625Z,12.75
2023-10-06T06:43:59.959Z,10.60
2023-10-06T06:46:28.258Z,10.00
2023-10-06T06:48:56.080Z,9.45
2023-10-06T06:51:30.121Z,9.80
2023-10-06T06:53:58.171Z,10.15
2023-10-06T06:56:30.232Z,9.35
2023-10-06T06:59:01.353Z,10.32
2023-10-06T07:01:29.531Z,11.90
2023-10-06T07:04:00.851Z,12.93
2023-10-06T07:08:58.565Z,13.23
2023-10-06T07:11:28.606Z,14.98
2023-10-06T07:13:59.684Z,13.07
2023-10-06T07:16:27.814Z,16.65
2023-10-06T07:18:55.775Z,17.20
2023-10-06T07:21:24.268Z,14.35
2023-10-06T07:23:53.532Z,13.45
2023-10-06T07:26:23.839Z,12.90
2023-10-06T07:28:55.679Z,17.08
2023-10-06T07:31:26.429Z,15.45
2023-10-06T07:33:55.792Z,13.50
2023-10-06T07:36:25.650Z,13.13
2023-10-06T07:38:54.265Z,17.45
2023-10-06T07:41:25.238Z,13.00
2023-10-06T07:43:53.881Z,14.02
2023-10-06T07:46:21.862Z,12.30
2023-10-06T07:48:52.146Z,14.63
2023-10-06T07:51:21.143Z,13.73
2023-10-06T07:53:49.773Z,14.57
2023-10-06T07:56:20.385Z,14.40
2023-10-06T07:58:48.733Z,12.98
2023-10-06T08:01:16.694Z,14.43
2023-10-06T08:03:44.729Z,11.95
2023-10-06T08:06:12.764Z,14.45
2023-10-06T08:08:40.746Z,13.10
2023-10-06T08:11:10.459Z,12.20
2023-10-06T08:13:40.082Z,6.90
2023-10-06T08:16:13.449Z,5.50
2023-10-06T08:18:41.867Z,6.88
2023-10-06T08:21:12.410Z,6.22
2023-10-06T08:23:40.690Z,5.95
2023-10-06T08:26:15.415Z,6.63
2023-10-06T08:28:43.576Z,5.57
2023-10-06T08:31:18.182Z,5.53
2023-10-06T08:33:47.987Z,4.72
2023-10-06T08:36:16.083Z,4.47
2023-10-06T08:38:48.047Z,4.65
2023-10-06T08:41:17.330Z,5.55
2023-10-06T08:43:46.112Z,4.95
2023-10-06T08:46:16.703Z,5.38
2023-10-06T08:48:46.631Z,5.03
2023-10-06T08:51:16.049Z,5.82
2023-10-06T08:53:45.465Z,5.72
2023-10-06T08:56:16.864Z,5.88
2023-10-06T08:58:45.739Z,5.40
2023-10-06T09:01:14.547Z,5.38
2023-10-06T09:03:42.581Z,5.47
2023-10-06T09:06:13.255Z,6.30
2023-10-06T09:08:42.699Z,4.75
2023-10-06T09:11:11.514Z,4.55
2023-10-06T09:13:39.750Z,4.65
2023-10-06T09:16:08.494Z,5.15
2023-10-06T09:18:40.400Z,5.93
2023-10-06T09:21:12.261Z,5.90
2023-10-06T09:23:44.062Z,5.40
2023-10-06T09:26:13.328Z,5.22
2023-10-06T09:31:46.355Z,4.75
2023-10-06T09:34:24.968Z,5.50
2023-10-06T09:36:53.287Z,5.65
2023-10-06T09:39:28.138Z,5.03
2023-10-06T09:41:56.231Z,4.50
2023-10-06T09:44:24.600Z,4.00
2023-10-06T09:46:54.511Z,4.30
2023-10-06T09:49:23.400Z,4.47
2023-10-06T09:51:54.027Z,4.60
2023-10-06T09:54:22.432Z,6.80
2023-10-06T09:56:56.436Z,9.02
2023-10-06T09:59:26.298Z,10.32
2023-10-06T10:01:55.061Z,7.95
2023-10-06T10:04:25.498Z,5.18
2023-10-06T10:06:55.180Z,4.73
2023-10-06T10:09:23.786Z,6.07
2023-10-06T10:11:57.864Z,5.85
2023-10-06T10:14:35.379Z,6.90
2023-10-06T10:17:15.165Z,5.70
2023-10-06T10:19:45.815Z,5.45
2023-10-06T10:22:14.996Z,5.13
2023-10-06T10:25:16.490Z,5.35
2023-10-06T10:27:34.492Z,5.25
2023-10-06T10:30:09.520Z,5.32
2023-10-06T10:32:42.981Z,5.57
2023-10-06T10:35:16.342Z,4.72
2023-10-06T10:38:01.659Z,5.00
2023-10-06T10:40:34.968Z,5.03
2023-10-06T10:43:05.759Z,4.80
2023-10-06T10:45:45.280Z,4.57
2023-10-06T10:48:17.281Z,4.60
2023-10-06T10:51:07.205Z,4.97
2023-10-06T10:53:43.346Z,4.35
2023-10-06T10:56:18.443Z,4.55
2023-10-06T10:58:46.392Z,4.97
2023-10-06T11:01:27.792Z,4.53
2023-10-06T11:04:14.462Z,3.72
2023-10-06T11:06:44.394Z,4.43
2023-10-06T11:09:28.403Z,4.70
2023-10-06T11:12:11.674Z,4.85
2023-10-06T11:14:45.546Z,4.72
2023-10-06T11:17:14.510Z,4.28
2023-10-06T11:19:42.401Z,4.25
2023-10-06T11:22:15.050Z,4.22
2023-10-06T11:24:45.623Z,4.18
2023-10-06T11:27:13.602Z,4.43
2023-10-06T11:29:41.949Z,5.93
2023-10-06T11:32:10.202Z,5.20
2023-10-06T11:34:38.160Z,4.93
2023-10-06T11:37:06.756Z,6.47
2023-10-06T11:39:34.798Z,4.00
2023-10-06T11:42:21.438Z,4.70
2023-10-06T11:44:49.281Z,4.53
2023-10-06T11:47:17.273Z,4.78
2023-10-06T11:49:58.137Z,4.85
2023-10-06T11:52:26.684Z,4.57
2023-10-06T11:54:54.502Z,4.25
2023-10-06T11:57:42.723Z,5.22
2023-10-06T12:00:11.969Z,4.50
2023-10-06T12:03:06.171Z,4.60
2023-10-06T12:05:34.513Z,3.40
2023-10-06T12:08:05.372Z,3.97
2023-10-06T12:13:06.614Z,4.30
2023-10-06T12:15:34.752Z,4.10
2023-10-06T12:18:02.592Z,4.22
2023-10-06T12:20:30.892Z,3.47
2023-10-06T12:22:58.806Z,4.85
2023-10-06T12:25:27.032Z,6.03
2023-10-06T12:27:58.135Z,4.45
2023-10-06T12:30:26.888Z,3.70
2023-10-06T12:32:59.559Z,3.83
2023-10-06T12:35:30.215Z,4.72
2023-10-06T12:38:00.298Z,5.35
2023-10-06T12:40:30.510Z,4.70
2023-10-06T12:42:58.569Z,4.10
2023-10-06T12:45:26.430Z,4.00
2023-10-06T12:47:54.369Z,4.43
2023-10-06T12:50:22.732Z,4.32
2023-10-06T12:52:53.743Z,4.18
2023-10-06T12:55:28.640Z,8.13
2023-10-06T12:57:56.464Z,4.18
2023-10-06T13:00:24.384Z,4.38
2023-10-06T13:02:53.404Z,4.28
2023-10-06T13:05:24.253Z,3.67
2023-10-06T13:07:53.026Z,5.30
2023-10-06T13:10:25.546Z,4.32
2023-10-06T13:12:53.517Z,3.97
2023-10-06T13:15:21.737Z,4.50
2023-10-06T13:17:51.136Z,5.00
2023-10-06T13:20:19.459Z,4.18
2023-10-06T13:22:50.868Z,5.13
2023-10-06T13:25:21.672Z,4.45
2023-10-06T13:27:49.976Z,4.25
2023-10-06T13:30:21.477Z,3.63
2023-10-06T13:32:53.003Z,3.97
2023-10-06T13:35:21.779Z,4.95
2023-10-06T13:37:49.880Z,5.22
2023-10-06T13:40:18.511Z,5.75
2023-10-06T13:42:51.445Z,6.72
2023-10-06T13:45:21.856Z,7.93
2023-10-06T13:47:56.903Z,7.07
2023-10-06T13:50:27.008Z,38.15
2023-10-06T13:52:55.843Z,6.35
2023-10-06T13:55:25.586Z,6.28
2023-10-06T13:57:54.165Z,7.03
2023-10-06T14:00:29.287Z,5.90
2023-10-06T14:03:05.093Z,4.90
2023-10-06T14:05:34.588Z,5.32
2023-10-06T14:08:06.193Z,5.32
2023-10-06T14:10:37.331Z,5.32
2023-10-06T14:15:46.780Z,5.95
2023-10-06T14:18:15.609Z,5.20
2023-10-06T14:20:47.569Z,5.15
2023-10-06T14:23:16.302Z,4.93
2023-10-06T14:25:44.529Z,5.15
2023-10-06T14:28:12.834Z,4.90
2023-10-06T14:30:47.786Z,5.65
2023-10-06T14:33:30.042Z,4.57
2023-10-06T14:36:00.924Z,4.65
2023-10-06T14:38:32.994Z,3.90
2023-10-06T14:41:21.023Z,4.00
2023-10-06T14:44:08.920Z,4.93
2023-10-06T14:46:41.241Z,5.00
2023-10-06T14:49:14.492Z,4.97
2023-10-06T14:51:43.254Z,4.35
2023-10-06T14:54:12.493Z,4.82
2023-10-06T14:56:41.208Z,5.43
2023-10-06T14:59:12.304Z,4.63
2023-10-06T15:04:14.577Z,5.10
2023-10-06T15:06:43.619Z,5.18
2023-10-06T15:09:24.023Z,4.27
2023-10-06T15:12:03.781Z,3.88
2023-10-06T15:14:32.140Z,5.45
2023-10-06T15:17:01.269Z,4.38
2023-10-06T15:19:29.345Z,4.40
2023-10-06T15:21:57.703Z,4.57
2023-10-06T15:24:25.883Z,5.13
2023-10-06T15:26:55.160Z,4.65
2023-10-06T15:29:26.212Z,5.03
2023-10-06T15:31:54.418Z,4.80
2023-10-06T15:34:22.213Z,5.07
2023-10-06T15:36:50.107Z,4.85
2023-10-06T15:39:19.206Z,5.15
2023-10-06T15:41:47.810Z,5.18
2023-10-06T15:44:16.637Z,5.47
2023-10-06T15:46:45.008Z,5.07
2023-10-06T15:49:15.112Z,4.68
2023-10-06T15:51:45.366Z,5.25
2023-10-06T15:54:13.143Z,5.25
2023-10-06T15:56:41.759Z,4.53
2023-10-06T15:59:17.436Z,4.50
2023-10-06T16:01:48.845Z,4.53
2023-10-06T16:04:18.221Z,4.78
2023-10-06T16:06:47.954Z,4.55
2023-10-06T16:09:19.105Z,5.10
2023-10-06T16:11:47.612Z,5.55
2023-10-06T16:14:17.081Z,4.78
2023-10-06T16:16:47.495Z,4.38
2023-10-06T16:19:15.965Z,4.85
2023-10-06T16:21:44.133Z,5.57
2023-10-06T16:24:13.731Z,4.60
2023-10-06T16:26:42.957Z,4.82
2023-10-06T16:29:11.786Z,4.85
2023-10-06T16:31:40.434Z,4.70
2023-10-06T16:34:09.744Z,5.30
2023-10-06T16:36:40.300Z,5.43
2023-10-06T16:39:18.041Z,4.93
2023-10-06T16:41:46.940Z,4.90
2023-10-06T16:44:16.578Z,4.80
2023-10-06T16:46:44.654Z,4.60
2023-10-06T16:49:13.418Z,4.40
2023-10-06T16:51:41.435Z,4.55
2023-10-06T16:54:11.462Z,4.03
2023-10-06T16:56:39.733Z,4.20
2023-10-06T16:59:07.826Z,4.38
2023-10-06T17:01:36.108Z,4.78
2023-10-06T17:04:05.968Z,3.65
2023-10-06T17:06:34.347Z,3.83
2023-10-06T17:09:02.713Z,3.95
2023-10-06T17:11:30.852Z,6.53
2023-10-06T17:13:58.744Z,3.97
2023-10-06T17:16:26.918Z,3.80
2023-10-06T17:18:54.970Z,3.55
2023-10-06T17:21:22.892Z,4.00
2023-10-06T17:23:50.674Z,4.10
2023-10-06T17:26:18.679Z,3.85
2023-10-06T17:28:46.532Z,3.42
2023-10-06T17:31:18.286Z,3.92
2023-10-06T17:33:46.792Z,3.60
2023-10-06T17:36:14.772Z,3.22
2023-10-06T17:38:43.665Z,2.83
2023-10-06T17:41:16.813Z,3.90
2023-10-06T17:43:48.260Z,3.60
2023-10-06T17:48:47.165Z,3.58
2023-10-06T17:51:18.293Z,3.60
2023-10-06T17:53:47.068Z,3.97
2023-10-06T17:56:17.205Z,3.45
2023-10-06T17:58:45.389Z,4.35
2023-10-06T18:01:13.876Z,4.10
2023-10-06T18:03:41.943Z,3.58
2023-10-06T18:06:11.115Z,4.38
2023-10-06T18:08:39.010Z,4.00
2023-10-06T18:11:06.774Z,4.43
2023-10-06T18:13:35.193Z,4.00
2023-10-06T18:16:06.959Z,4.40
2023-10-06T18:18:35.007Z,4.15
2023-10-06T18:21:04.512Z,3.75
2023-10-06T18:23:32.582Z,4.10
2023-10-06T18:26:00.473Z,4.55
2023-10-06T18:28:28.501Z,5.20
2023-10-06T18:30:56.465Z,4.88
2023-10-06T18:33:24.390Z,4.63
2023-10-06T18:35:52.222Z,4.90
2023-10-06T18:38:20.141Z,5.72
2023-10-06T18:40:57.444Z,3.72
2023-10-06T18:43:26.350Z,4.97
2023-10-06T18:45:56.976Z,4.88
2023-10-06T18:48:25.638Z,4.35
2023-10-06T18:50:57.180Z,4.55
2023-10-06T18:53:25.242Z,4.65
2023-10-06T18:55:57.295Z,4.38
2023-10-06T18:58:25.921Z,4.22
2023-10-06T19:00:53.740Z,5.53
2023-10-06T19:03:24.044Z,5.13
2023-10-06T19:06:04.426Z,5.32
2023-10-06T19:08:37.314Z,5.30
2023-10-06T19:11:13.480Z,5.95
2023-10-06T19:13:42.003Z,6.43
2023-10-06T19:16:11.595Z,5.85
2023-10-06T19:18:40.378Z,6.25
2023-10-06T19:21:08.323Z,6.43
2023-10-06T19:23:36.302Z,7.22
2023-10-06T19:26:06.421Z,7.30
2023-10-06T19:28:34.742Z,8.18
2023-10-06T19:31:02.928Z,7.75
2023-10-06T19:33:30.817Z,7.82
2023-10-06T19:36:02.396Z,8.02
2023-10-06T19:38:30.325Z,7.95
2023-10-06T19:40:58.181Z,7.88
2023-10-06T19:43:26.218Z,8.45
2023-10-06T19:45:56.645Z,7.90
2023-10-06T19:48:26.439Z,8.02
2023-10-06T19:50:54.399Z,8.68
2023-10-06T19:53:24.074Z,8.40
2023-10-06T19:55:53.228Z,9.50
2023-10-06T19:58:21.414Z,9.15
2023-10-06T20:00:49.769Z,8.27
2023-10-06T20:03:18.945Z,11.55
2023-10-06T20:05:46.943Z,8.02
2023-10-06T20:08:15.529Z,8.02
2023-10-06T20:10:43.440Z,7.28
2023-10-06T20:13:11.542Z,8.00
2023-10-06T20:15:39.650Z,8.00
2023-10-06T20:18:07.735Z,8.35
2023-10-06T20:20:35.760Z,9.07
2023-10-06T20:23:03.669Z,10.07
2023-10-06T20:25:31.550Z,8.98
2023-10-06T20:27:59.391Z,7.63
2023-10-06T20:30:27.263Z,8.07
2023-10-06T20:32:57.153Z,7.68
2023-10-06T20:35:29.131Z,7.55
2023-10-06T20:37:57.318Z,8.13
2023-10-06T20:40:30.108Z,7.07
2023-10-06T20:42:59.170Z,7.95
2023-10-06T20:45:28.197Z,8.45
2023-10-06T20:47:57.027Z,8.45
2023-10-06T20:50:25.648Z,7.68
2023-10-06T20:52:54.626Z,8.23
2023-10-06T20:55:23.086Z,8.20
2023-10-06T20:57:51.298Z,9.80
2023-10-06T21:00:19.823Z,8.85
2023-10-06T21:02:48.181Z,8.13
2023-10-06T21:05:20.999Z,9.55
2023-10-06T21:07:52.255Z,10.02
2023-10-06T21:12:48.516Z,10.95
2023-10-06T21:15:17.680Z,9.73
2023-10-06T21:17:48.565Z,9.95
2023-10-06T21:20:17.326Z,10.85
2023-10-06T21:22:45.265Z,10.63
2023-10-06T21:25:18.618Z,10.98
2023-10-06T21:27:47.190Z,11.25
2023-10-06T21:30:17.322Z,11.25
2023-10-06T21:32:46.461Z,9.80
2023-10-06T21:35:15.845Z,8.10
2023-10-06T21:37:46.069Z,9.10
2023-10-06T21:40:14.404Z,9.50
2023-10-06T21:42:42.597Z,7.65
2023-10-06T21:45:11.170Z,7.53
2023-10-06T21:47:39.150Z,5.57
2023-10-06T21:50:07.505Z,6.50
2023-10-06T21:52:35.532Z,7.20
2023-10-06T21:55:03.748Z,7.80
2023-10-06T21:57:36.011Z,9.35
2023-10-06T22:00:27.236Z,8.98
2023-10-06T22:02:56.154Z,10.15
2023-10-06T22:05:24.600Z,9.55
2023-10-06T22:07:52.617Z,10.10
2023-10-06T22:10:20.725Z,10.90
2023-10-06T22:12:50.995Z,9.70
2023-10-06T22:15:18.862Z,8.95
2023-10-06T22:17:47.240Z,10.65
2023-10-06T22:20:15.820Z,9.00
2023-10-06T22:22:43.811Z,10.43
2023-10-06T22:25:11.826Z,8.93
2023-10-06T22:27:41.927Z,7.70
2023-10-06T22:30:10.608Z,6.50
2023-10-06T22:32:38.561Z,6.80
2023-10-06T22:35:06.478Z,7.28
2023-10-06T22:37:35.358Z,6.65
2023-10-06T22:40:03.311Z,7.13
2023-10-06T22:42:31.067Z,6.80
2023-10-06T22:44:58.852Z,6.63
2023-10-06T22:47:26.796Z,6.75
2023-10-06T22:49:55.625Z,6.45
2023-10-06T22:52:23.553Z,6.55
2023-10-06T22:54:52.902Z,6.78
2023-10-06T22:57:20.759Z,6.97
2023-10-06T22:59:49.039Z,6.70
2023-10-06T23:02:17.065Z,7.75
2023-10-06T23:04:45.029Z,6.50
2023-10-06T23:07:12.952Z,7.00
2023-10-06T23:09:40.946Z,6.70
2023-10-06T23:12:09.136Z,6.15
2023-10-06T23:14:37.082Z,6.07
2023-10-06T23:17:06.124Z,5.93
2023-10-06T23:19:35.514Z,5.63
2023-10-06T23:22:06.273Z,5.88
2023-10-06T23:24:49.356Z,5.65
2023-10-06T23:27:18.082Z,5.50
2023-10-06T23:29:46.320Z,5.00
2023-10-06T23:32:14.256Z,5.50
2023-10-06T23:34:43.442Z,5.25
2023-10-06T23:37:13.737Z,4.88
2023-10-06T23:39:42.363Z,5.03
2023-10-06T23:42:10.650Z,4.95
2023-10-06T23:44:39.505Z,5.22
2023-10-06T23:47:13.884Z,5.45
2023-10-06T23:49:42.372Z,5.18
2023-10-06T23:52:14.021Z,5.53
2023-10-06T23:54:48.920Z,5.97
2023-10-06T23:57:16.876Z,4.95
2023-10-06T23:59:49.545Z,5.00
